| time (UTC) | temp F | wind direction | speed MPH | gust MPH | rain 1hr in | rain 24hr in | rain mn in | humidity % | barometer mb |
| 20260906211514 | 64 | 350 | 6.0 | 19.0 | 0.00 | 0.01 | 0.01 | 79 | 1015.0 |
| 20260906210019 | 64 | 325 | 3.0 | 12.0 | 0.00 | 0.01 | 0.01 | 79 | 1015.1 |
| 20260906204513 | 64 | 323 | 4.0 | 16.0 | 0.00 | 0.01 | 0.01 | 79 | 1015.2 |
| 20260906203015 | 63 | 2 | 3.0 | 13.0 | 0.00 | 0.01 | 0.01 | 80 | 1015.1 |
| 20260906201509 | 63 | 344 | 4.0 | 13.0 | 0.00 | 0.01 | 0.01 | 81 | 1015.2 |
| 20260906200008 | 62 | 348 | 4.0 | 16.0 | 0.00 | 0.01 | 0.01 | 81 | 1015.2 |
| 20260906194509 | 62 | 310 | 4.0 | 16.0 | 0.00 | 0.01 | 0.01 | 82 | 1015.5 |
| 20260906193006 | 62 | 341 | 2.0 | 12.0 | 0.00 | 0.01 | 0.01 | 83 | 1015.6 |
| 20260906191507 | 62 | 331 | 2.0 | 11.0 | 0.01 | 0.01 | 0.01 | 84 | 1015.8 |
| 20260906190004 | 61 | 323 | 1.0 | 9.0 | 0.01 | 0.01 | 0.01 | 84 | 1015.8 |
| 20260906184502 | 61 | 341 | 6.0 | 14.0 | 0.01 | 0.01 | 0.01 | 82 | 1016.0 |
| 20260906183002 | 61 | 4 | 0.0 | 8.0 | 0.01 | 0.01 | 0.01 | 78 | 1015.9 |
| 20260906181601 | 61 | 325 | 0.0 | 2.0 | 0.00 | 0.00 | 0.00 | 78 | 1015.8 |
| 20260906180113 | 61 | 300 | 0.0 | 1.0 | 0.00 | 0.00 | 0.00 | 78 | 1015.7 |
| 20260906174558 | 61 | 320 | 0.0 | 0.0 | 0.00 | 0.00 | 0.00 | 78 | 1015.8 |
| 20260906173102 | 60 | 294 | 0.0 | 0.0 | 0.00 | 0.00 | 0.00 | 82 | 1015.7 |
| 20260906171602 | 60 | 267 | 0.0 | 0.0 | 0.00 | 0.00 | 0.00 | 84 | 1015.8 |
| 20260906170056 | 59 | 272 | 0.0 | 0.0 | 0.00 | 0.00 | 0.00 | 86 | 1015.7 |
| 20260906164548 | 59 | 227 | 0.0 | 2.0 | 0.00 | 0.00 | 0.00 | 87 | 1015.6 |
| 20260906163103 | 58 | 277 | 0.0 | 0.0 | 0.00 | 0.00 | 0.00 | 88 | 1015.6 |
| 20260906161543 | 57 | 231 | 0.0 | 0.0 | 0.00 | 0.00 | 0.00 | 89 | 1015.6 |
| 20260906160041 | 57 | 227 | 0.0 | 0.0 | 0.00 | 0.00 | 0.00 | 89 | 1015.5 |
| 20260906154539 | 56 | 213 | 0.0 | 0.0 | 0.00 | 0.00 | 0.00 | 91 | 1015.4 |
| 20260906153044 | 56 | 205 | 0.0 | 2.0 | 0.00 | 0.00 | 0.00 | 90 | 1015.4 |
| 20260906151534 | 55 | 179 | 0.0 | 0.0 | 0.00 | 0.00 | 0.00 | 92 | 1015.4 |
| 20260906150034 | 54 | 179 | 0.0 | 0.0 | 0.00 | 0.00 | 0.00 | 91 | 1015.4 |
| 20260906144535 | 54 | 146 | 0.0 | 0.0 | 0.00 | 0.00 | 0.00 | 91 | 1015.3 |
| 20260906143031 | 52 | 145 | 0.0 | 2.0 | 0.00 | 0.00 | 0.00 | 92 | 1015.2 |
| 20260906141528 | 52 | 131 | 0.0 | 0.0 | 0.00 | 0.00 | 0.00 | 92 | 1015.0 |
| 20260906140028 | 52 | 131 | 0.0 | 0.0 | 0.00 | 0.00 | 0.00 | 92 | 1014.9 |
| 20260906134532 | 52 | 131 | 0.0 | 0.0 | 0.00 | 0.00 | 0.00 | 92 | 1014.7 |
| 20260906133025 | 52 | 130 | 0.0 | 0.0 | 0.00 | 0.00 | 0.00 | 92 | 1014.5 |
| 20260906131525 | 52 | 128 | 0.0 | 0.0 | 0.00 | 0.00 | 0.00 | 93 | 1014.4 |
| 20260906130027 | 52 | 127 | 0.0 | 0.0 | 0.00 | 0.00 | 0.00 | 93 | 1014.3 |
| 20260906124523 | 52 | 127 | 0.0 | 0.0 | 0.00 | 0.00 | 0.00 | 93 | 1014.2 |
| 20260906124022 | 53 | 127 | 0.0 | 0.0 | 0.00 | 0.00 | 0.00 | 93 | 1014.3 |
| 20260906123606 | 53 | 127 | 0.0 | 0.0 | 0.00 | 0.00 | 0.00 | 93 | 1014.3 |
| 20260906123009 | 52 | 127 | 0.0 | 0.0 | 0.00 | 0.00 | 0.00 | 93 | 1014.2 |
| 20260906121508 | 52 | 124 | 0.0 | 0.0 | 0.00 | 0.00 | 0.00 | 92 | 1014.1 |
| 20260906120007 | 52 | 125 | 0.0 | 0.0 | 0.00 | 0.00 | 0.00 | 93 | 1014.1 |
| 20260906114506 | 52 | 121 | 0.0 | 0.0 | 0.00 | 0.00 | 0.00 | 93 | 1014.2 |
| 20260906113007 | 52 | 114 | 0.0 | 0.0 | 0.00 | 0.00 | 0.00 | 92 | 1014.1 |
| 20260906111504 | 53 | 126 | 0.0 | 0.0 | 0.00 | 0.00 | 0.00 | 93 | 1014.2 |
| 20260906110004 | 53 | 126 | 0.0 | 0.0 | 0.00 | 0.00 | 0.00 | 93 | 1014.3 |
| 20260906104501 | 53 | 126 | 0.0 | 0.0 | 0.00 | 0.00 | 0.00 | 93 | 1014.3 |
| 20260906103001 | 53 | 126 | 0.0 | 0.0 | 0.00 | 0.00 | 0.00 | 92 | 1014.2 |
| 20260906101600 | 53 | 126 | 0.0 | 0.0 | 0.00 | 0.00 | 0.00 | 92 | 1014.2 |
| 20260906100111 | 54 | 123 | 0.0 | 0.0 | 0.00 | 0.00 | 0.00 | 92 | 1014.0 |
| 20260906094609 | 54 | 123 | 0.0 | 0.0 | 0.00 | 0.00 | 0.00 | 93 | 1014.2 |
| 20260906093059 | 54 | 123 | 0.0 | 0.0 | 0.00 | 0.00 | 0.00 | 93 | 1014.3 |
| 20260906091555 | 53 | 123 | 0.0 | 1.0 | 0.00 | 0.00 | 0.00 | 92 | 1014.3 |
| 20260906090056 | 55 | 168 | 0.0 | 0.0 | 0.00 | 0.00 | 0.00 | 93 | 1014.3 |
| 20260906084557 | 54 | 168 | 0.0 | 0.0 | 0.00 | 0.00 | 0.00 | 92 | 1014.4 |
| 20260906083053 | 55 | 169 | 0.0 | 0.0 | 0.00 | 0.00 | 0.00 | 93 | 1014.4 |
| 20260906081552 | 55 | 169 | 0.0 | 0.0 | 0.00 | 0.00 | 0.00 | 92 | 1014.5 |
| 20260906080057 | 55 | 169 | 0.0 | 0.0 | 0.00 | 0.00 | 0.00 | 92 | 1014.5 |
| 20260906074557 | 55 | 169 | 0.0 | 0.0 | 0.00 | 0.00 | 0.00 | 92 | 1014.4 |
| 20260906073049 | 55 | 173 | 0.0 | 1.0 | 0.00 | 0.00 | 0.00 | 92 | 1014.4 |
| 20260906071549 | 54 | 191 | 0.0 | 0.0 | 0.00 | 0.00 | 0.00 | 93 | 1014.2 |
| 20260906070045 | 54 | 125 | 0.0 | 0.0 | 0.00 | 0.00 | 0.00 | 93 | 1014.2 |
| 20260906064544 | 55 | 123 | 0.0 | 0.0 | 0.00 | 0.00 | 0.00 | 94 | 1014.3 |
| 20260906063044 | 55 | 182 | 0.0 | 0.0 | 0.00 | 0.00 | 0.00 | 95 | 1014.3 |
| 20260906061544 | 54 | 104 | 0.0 | 0.0 | 0.00 | 0.00 | 0.00 | 94 | 1014.3 |
| 20260906060055 | 55 | 61 | 0.0 | 0.0 | 0.00 | 0.00 | 0.00 | 94 | 1014.3 |
| 20260906054546 | 55 | 58 | 0.0 | 0.0 | 0.00 | 0.00 | 0.00 | 94 | 1014.5 |
| 20260906053042 | 55 | 56 | 0.0 | 0.0 | 0.00 | 0.00 | 0.00 | 94 | 1014.4 |
| 20260906051545 | 56 | 52 | 0.0 | 0.0 | 0.00 | 0.00 | 0.00 | 94 | 1014.6 |
| 20260906050044 | 56 | 52 | 0.0 | 0.0 | 0.00 | 0.00 | 0.00 | 94 | 1014.5 |
| 20260906044541 | 56 | 20 | 0.0 | 4.0 | 0.00 | 0.00 | 0.00 | 94 | 1014.5 |
| 20260906043041 | 56 | 19 | 0.0 | 8.0 | 0.00 | 0.00 | 0.00 | 94 | 1014.5 |
| 20260906041546 | 57 | 10 | 0.0 | 4.0 | 0.00 | 0.00 | 0.00 | 94 | 1014.6 |
| 20260906040046 | 57 | 5 | 0.0 | 8.0 | 0.00 | 0.00 | 0.00 | 94 | 1014.6 |
| 20260906034539 | 57 | 360 | 1.0 | 8.0 | 0.00 | 0.00 | 0.00 | 93 | 1014.6 |
| 20260906033039 | 57 | 17 | 1.0 | 8.0 | 0.00 | 0.00 | 0.00 | 93 | 1014.7 |
| 20260906031538 | 57 | 26 | 0.0 | 10.0 | 0.00 | 0.00 | 0.00 | 92 | 1014.5 |
| 20260906030037 | 58 | 3 | 1.0 | 9.0 | 0.00 | 0.00 | 0.00 | 92 | 1014.5 |
| 20260906024537 | 58 | 8 | 0.0 | 7.0 | 0.00 | 0.00 | 0.00 | 90 | 1014.6 |
| 20260906023044 | 59 | 358 | 0.0 | 9.0 | 0.00 | 0.00 | 0.00 | 89 | 1014.7 |
| 20260906021535 | 60 | 20 | 0.0 | 8.0 | 0.00 | 0.00 | 0.00 | 88 | 1014.7 |
| 20260906020036 | 61 | 2 | 3.0 | 10.0 | 0.00 | 0.00 | 0.00 | 87 | 1014.8 |
| 20260906014539 | 61 | 360 | 1.0 | 14.0 | 0.00 | 0.00 | 0.00 | 87 | 1014.9 |
| 20260906013035 | 62 | 358 | 1.0 | 9.0 | 0.00 | 0.00 | 0.00 | 86 | 1014.9 |
| 20260906011534 | 63 | 360 | 3.0 | 13.0 | 0.00 | 0.00 | 0.00 | 86 | 1014.8 |
| 20260906010034 | 62 | 355 | 2.0 | 10.0 | 0.00 | 0.00 | 0.00 | 88 | 1014.8 |
| 20260906004534 | 62 | 335 | 2.0 | 14.0 | 0.00 | 0.00 | 0.00 | 87 | 1014.8 |
| 20260906003033 | 63 | 13 | 2.0 | 12.0 | 0.00 | 0.00 | 0.00 | 87 | 1014.9 |
| 20260906001532 | 63 | 348 | 2.0 | 11.0 | 0.00 | 0.00 | 0.00 | 85 | 1014.9 |
| 20260906000032 | 63 | 356 | 2.0 | 10.0 | 0.00 | 0.00 | 0.00 | 86 | 1015.1 |
| 20260905234532 | 63 | 347 | 2.0 | 12.0 | 0.00 | 0.00 | 0.00 | 86 | 1015.2 |
| 20260905233030 | 64 | 331 | 2.0 | 13.0 | 0.00 | 0.00 | 0.00 | 84 | 1015.1 |
| 20260905231530 | 64 | 352 | 2.0 | 12.0 | 0.00 | 0.00 | 0.00 | 84 | 1015.2 |
| 20260905230029 | 64 | 13 | 1.0 | 11.0 | 0.00 | 0.00 | 0.00 | 84 | 1015.4 |
| 20260905224528 | 64 | 2 | 2.0 | 14.0 | 0.00 | 0.00 | 0.00 | 84 | 1015.6 |
| 20260905223027 | 64 | 346 | 2.0 | 11.0 | 0.00 | 0.00 | 0.00 | 82 | 1015.5 |
| 20260905221534 | 65 | 335 | 0.0 | 10.0 | 0.00 | 0.00 | 0.00 | 83 | 1015.6 |
| 20260905220025 | 64 | 6 | 1.0 | 13.0 | 0.00 | 0.00 | 0.00 | 82 | 1015.7 |
| 20260905214524 | 65 | 337 | 1.0 | 10.0 | 0.00 | 0.00 | 0.00 | 81 | 1015.9 |
| 20260905213032 | 64 | 309 | 0.0 | 10.0 | 0.00 | 0.00 | 0.00 | 82 | 1015.8 |